Time;durP1;ratioP1;P1;durP2;ratioP2;P2;SDS_P1;SDS_P2;PMS_P1;PMS_P2;Temp;Humidity;BMP_temperature;BMP_pressure;BME280_temperature;BME280_humidity;BME280_pressure;Samples;Min_cycle;Max_cycle;Signal;HPM_P1;HPM_P2
2023/05/22 00:00:12;;;;;;;10.95;5.80;;;16.40;99.90;;;;;;5023819;28;20716;-59
2023/05/22 00:02:41;;;;;;;11.95;5.88;;;16.40;99.90;;;;;;5021398;28;20056;-57
2023/05/22 00:05:09;;;;;;;13.02;6.07;;;16.40;99.90;;;;;;5008115;28;20046;-57
2023/05/22 00:07:35;;;;;;;8.75;3.70;;;16.40;99.90;;;;;;5021492;28;20100;-59
2023/05/22 00:10:01;;;;;;;12.88;5.13;;;16.30;99.90;;;;;;5021894;28;20045;-57
2023/05/22 00:12:27;;;;;;;10.38;5.10;;;16.30;99.90;;;;;;5023516;28;20524;-57
2023/05/22 00:14:52;;;;;;;12.20;6.25;;;16.30;99.90;;;;;;5022675;28;20073;-57
2023/05/22 00:17:19;;;;;;;11.93;5.15;;;16.20;99.90;;;;;;5022900;28;20042;-57
2023/05/22 00:19:45;;;;;;;10.98;5.10;;;16.20;99.90;;;;;;5021298;28;20539;-58
2023/05/22 00:22:11;;;;;;;8.50;5.07;;;16.10;99.90;;;;;;5022279;28;20581;-57
2023/05/22 00:24:37;;;;;;;9.40;5.68;;;16.10;99.90;;;;;;5053458;28;20052;-57
2023/05/22 00:27:03;;;;;;;8.38;3.88;;;16.00;99.90;;;;;;5021108;28;20767;-57
2023/05/22 00:29:30;;;;;;;13.63;5.25;;;16.10;99.90;;;;;;5024323;28;20041;-57
2023/05/22 00:31:55;;;;;;;12.80;6.75;;;16.00;99.90;;;;;;5022782;28;20049;-57
2023/05/22 00:34:21;;;;;;;9.35;5.45;;;16.00;99.90;;;;;;5022879;28;20600;-57
2023/05/22 00:36:47;;;;;;;12.20;6.13;;;16.00;99.90;;;;;;5023971;28;20047;-59
2023/05/22 00:39:12;;;;;;;8.18;5.35;;;16.00;99.90;;;;;;5023236;28;20421;-57
2023/05/22 00:41:38;;;;;;;3.72;2.92;;;16.00;99.90;;;;;;5024703;28;20124;-58
2023/05/22 00:44:04;;;;;;;7.10;5.13;;;15.90;99.90;;;;;;5021962;28;20060;-58
2023/05/22 00:46:31;;;;;;;12.50;6.15;;;15.80;99.90;;;;;;5021473;28;20523;-57
2023/05/22 00:48:57;;;;;;;12.32;5.80;;;15.80;99.90;;;;;;5023948;28;20039;-57
2023/05/22 00:51:23;;;;;;;9.95;5.72;;;15.80;99.90;;;;;;5022777;28;20045;-57
2023/05/22 00:53:50;;;;;;;8.57;5.03;;;15.80;99.90;;;;;;5023181;28;20123;-58
2023/05/22 00:56:17;;;;;;;8.07;4.97;;;15.80;99.90;;;;;;5025218;28;20037;-57
2023/05/22 00:58:43;;;;;;;13.75;5.10;;;15.80;99.90;;;;;;5024975;28;21337;-57
2023/05/22 01:01:10;;;;;;;10.43;5.97;;;15.70;99.90;;;;;;5022399;28;20125;-57
2023/05/22 01:03:41;;;;;;;11.82;5.35;;;15.70;99.90;;;;;;5022378;28;20140;-57
2023/05/22 01:06:07;;;;;;;9.50;5.07;;;15.70;99.90;;;;;;5023361;28;20065;-57
2023/05/22 01:08:32;;;;;;;9.48;4.97;;;15.70;99.90;;;;;;5019315;28;20042;-57
2023/05/22 01:11:12;;;;;;;10.15;5.43;;;15.60;99.90;;;;;;5035966;28;20155;-58
2023/05/22 01:14:00;;;;;;;7.03;4.90;;;15.60;99.90;;;;;;5021622;28;20056;-57
2023/05/22 01:16:33;;;;;;;8.55;3.92;;;15.60;99.90;;;;;;5025660;28;20033;-57
2023/05/22 01:19:16;;;;;;;10.90;5.45;;;15.60;99.90;;;;;;5023237;28;20638;-58
2023/05/22 01:21:54;;;;;;;8.95;5.68;;;15.50;99.90;;;;;;5007150;28;20120;-57
2023/05/22 01:24:41;;;;;;;6.97;4.50;;;15.50;99.90;;;;;;5022972;28;21023;-57
2023/05/22 01:27:27;;;;;;;9.57;4.35;;;15.40;99.90;;;;;;5021417;28;20041;-58
2023/05/22 01:30:17;;;;;;;10.25;4.90;;;15.30;99.90;;;;;;5023303;28;20048;-57
2023/05/22 01:32:45;;;;;;;9.75;5.32;;;15.30;99.90;;;;;;5022066;28;20042;-57
2023/05/22 01:35:16;;;;;;;13.25;6.07;;;15.20;99.90;;;;;;5022757;28;20541;-57
2023/05/22 01:37:43;;;;;;;6.80;4.13;;;15.20;99.90;;;;;;5023033;28;20305;-58
2023/05/22 01:40:11;;;;;;;6.40;4.15;;;15.20;99.90;;;;;;5022299;28;21344;-57
2023/05/22 01:42:39;;;;;;;9.20;4.20;;;15.10;99.90;;;;;;5021992;28;20092;-57
2023/05/22 01:45:11;;;;;;;8.80;5.00;;;15.10;99.90;;;;;;5023139;28;20066;-57
2023/05/22 01:47:36;;;;;;;7.90;4.10;;;15.10;99.90;;;;;;4991264;28;20045;-57
2023/05/22 01:50:04;;;;;;;6.93;4.75;;;15.10;99.90;;;;;;5053011;28;20038;-58
2023/05/22 01:53:03;;;;;;;14.30;6.60;;;15.00;99.90;;;;;;5020502;28;20145;-59
2023/05/22 01:55:44;;;;;;;10.38;5.20;;;15.00;99.90;;;;;;5022385;28;20136;-57
2023/05/22 01:58:26;;;;;;;11.05;6.65;;;15.00;99.90;;;;;;5023290;28;20676;-57
2023/05/22 02:00:54;;;;;;;7.75;4.38;;;14.90;99.90;;;;;;5020120;28;20114;-59
2023/05/22 02:03:25;;;;;;;9.63;5.88;;;15.00;99.90;;;;;;5017158;28;20474;-57
2023/05/22 02:05:53;;;;;;;9.23;4.70;;;15.00;99.90;;;;;;5023615;28;20607;-57
2023/05/22 02:08:20;;;;;;;11.75;4.38;;;14.90;99.90;;;;;;5022247;28;20052;-57
2023/05/22 02:10:48;;;;;;;11.32;4.88;;;14.90;99.90;;;;;;5019892;28;20038;-58
2023/05/22 02:13:14;;;;;;;7.43;3.33;;;14.90;99.90;;;;;;5054446;28;20049;-58
2023/05/22 02:15:43;;;;;;;10.85;4.28;;;14.90;99.90;;;;;;5019375;28;20061;-57
2023/05/22 02:18:11;;;;;;;9.88;5.32;;;14.90;99.90;;;;;;5023438;28;20034;-58
2023/05/22 02:20:37;;;;;;;7.43;4.40;;;14.90;99.90;;;;;;5023735;28;20048;-57
2023/05/22 02:23:03;;;;;;;9.50;4.45;;;14.90;99.90;;;;;;5021814;28;20046;-58
2023/05/22 02:25:29;;;;;;;13.73;4.25;;;14.90;99.90;;;;;;5018090;28;20690;-59
2023/05/22 02:27:54;;;;;;;6.88;3.75;;;14.90;99.90;;;;;;4990013;28;20061;-58
2023/05/22 02:30:20;;;;;;;8.73;5.43;;;14.80;99.90;;;;;;5021873;28;20042;-58
2023/05/22 02:32:45;;;;;;;8.63;4.95;;;14.80;99.90;;;;;;5021035;28;20046;-57
2023/05/22 02:35:11;;;;;;;9.45;4.80;;;14.80;99.90;;;;;;5022458;28;20719;-58
2023/05/22 02:37:37;;;;;;;8.88;4.32;;;14.80;99.90;;;;;;5020395;28;20052;-58
2023/05/22 02:40:07;;;;;;;8.48;5.10;;;14.80;99.90;;;;;;5022825;28;20046;-57
2023/05/22 02:42:33;;;;;;;8.00;4.30;;;14.80;99.90;;;;;;5022039;28;20042;-57
2023/05/22 02:44:59;;;;;;;8.70;4.82;;;14.80;99.90;;;;;;5025261;28;21181;-57
2023/05/22 02:47:25;;;;;;;11.82;5.65;;;14.70;99.90;;;;;;5023467;28;20516;-57
2023/05/22 02:49:50;;;;;;;10.07;4.10;;;14.70;99.90;;;;;;5026789;28;20368;-57
2023/05/22 02:52:16;;;;;;;13.90;6.07;;;14.70;99.90;;;;;;5058553;28;20462;-57
2023/05/22 02:54:42;;;;;;;10.38;5.20;;;14.70;99.90;;;;;;5024146;28;20251;-57
2023/05/22 02:57:07;;;;;;;7.60;4.30;;;14.70;99.90;;;;;;5025291;28;20046;-57
2023/05/22 02:59:35;;;;;;;15.73;5.97;;;14.70;99.90;;;;;;5026868;28;20038;-57
2023/05/22 03:02:01;;;;;;;7.47;3.88;;;14.70;99.90;;;;;;5027470;28;20046;-57
2023/05/22 03:04:28;;;;;;;12.43;6.32;;;14.60;99.90;;;;;;5024394;28;20053;-57
2023/05/22 03:06:54;;;;;;;6.18;4.45;;;14.60;99.90;;;;;;5025542;28;20095;-57
2023/05/22 03:09:20;;;;;;;9.90;5.07;;;14.60;99.90;;;;;;5025116;28;20093;-57
2023/05/22 03:11:46;;;;;;;9.10;4.85;;;14.60;99.90;;;;;;5040709;28;20546;-56
2023/05/22 03:14:12;;;;;;;9.95;5.47;;;14.60;99.90;;;;;;5023866;28;20048;-57
2023/05/22 03:16:37;;;;;;;6.03;3.25;;;14.50;99.90;;;;;;5023236;28;20858;-56
2023/05/22 03:19:14;;;;;;;7.70;3.22;;;14.50;99.90;;;;;;5026935;28;20091;-57
2023/05/22 03:21:43;;;;;;;11.73;4.80;;;14.50;99.90;;;;;;5024066;28;20572;-57
2023/05/22 03:24:10;;;;;;;10.10;5.88;;;14.40;99.90;;;;;;5025942;28;20088;-57
2023/05/22 03:26:36;;;;;;;9.63;4.53;;;14.40;99.90;;;;;;5023791;28;20081;-56
2023/05/22 03:29:01;;;;;;;10.52;4.63;;;14.30;99.90;;;;;;5009279;28;20076;-56
2023/05/22 03:31:30;;;;;;;11.77;4.18;;;14.30;99.90;;;;;;5023970;28;20041;-57
2023/05/22 03:33:56;;;;;;;8.55;4.85;;;14.30;99.90;;;;;;5024630;28;20049;-57
2023/05/22 03:36:22;;;;;;;12.73;6.45;;;14.30;99.90;;;;;;5024056;28;20037;-56
2023/05/22 03:38:48;;;;;;;8.25;4.70;;;14.30;99.90;;;;;;5023441;28;20590;-57
2023/05/22 03:41:14;;;;;;;6.82;4.25;;;14.20;99.90;;;;;;5025661;28;20124;-57
2023/05/22 03:43:39;;;;;;;8.73;4.22;;;14.20;99.90;;;;;;5024660;28;20501;-57
2023/05/22 03:46:05;;;;;;;9.77;5.10;;;14.20;99.90;;;;;;5025125;28;20061;-56
2023/05/22 03:48:33;;;;;;;8.25;4.22;;;14.20;99.90;;;;;;5025645;28;20109;-56
2023/05/22 03:50:59;;;;;;;7.30;4.35;;;14.20;99.90;;;;;;5026508;28;20076;-57
2023/05/22 03:53:24;;;;;;;6.75;3.35;;;14.20;99.90;;;;;;5025372;28;20272;-57
2023/05/22 03:55:50;;;;;;;7.80;5.07;;;14.20;99.90;;;;;;5024260;28;20038;-57
2023/05/22 03:58:16;;;;;;;9.23;4.60;;;14.20;99.90;;;;;;5025484;28;20188;-57
2023/05/22 04:00:42;;;;;;;10.82;4.32;;;14.10;99.90;;;;;;5025471;28;20044;-57
2023/05/22 04:03:11;;;;;;;6.70;3.70;;;14.10;99.90;;;;;;5026140;28;20076;-57
2023/05/22 04:05:39;;;;;;;7.85;4.25;;;14.10;99.90;;;;;;5024474;28;20052;-57
2023/05/22 04:08:05;;;;;;;9.23;5.10;;;14.10;99.90;;;;;;5026629;28;20120;-57
2023/05/22 04:10:31;;;;;;;8.48;4.22;;;14.00;99.90;;;;;;5025193;28;20049;-57
2023/05/22 04:12:57;;;;;;;6.82;4.05;;;14.00;99.90;;;;;;5025149;28;20530;-57
2023/05/22 04:15:23;;;;;;;12.18;5.75;;;14.00;99.90;;;;;;5022856;28;20367;-56
2023/05/22 04:17:50;;;;;;;9.93;4.88;;;14.00;99.90;;;;;;5024508;28;20143;-56
2023/05/22 04:20:16;;;;;;;12.63;4.82;;;14.00;99.90;;;;;;5025387;28;20045;-58
2023/05/22 04:22:44;;;;;;;12.30;4.65;;;14.00;99.90;;;;;;5026991;28;20229;-57
2023/05/22 04:25:10;;;;;;;9.30;4.45;;;14.00;99.90;;;;;;5020227;28;20052;-56
2023/05/22 04:27:36;;;;;;;10.07;5.15;;;14.00;99.90;;;;;;5023120;28;20056;-57
2023/05/22 04:30:02;;;;;;;9.05;5.00;;;14.00;99.90;;;;;;5023684;28;20049;-56
2023/05/22 04:32:28;;;;;;;8.73;4.80;;;14.10;99.90;;;;;;5051990;28;20041;-56
2023/05/22 04:34:57;;;;;;;8.98;4.15;;;14.10;99.90;;;;;;5024439;28;20720;-56
2023/05/22 04:37:25;;;;;;;7.40;3.60;;;14.00;99.90;;;;;;5025433;28;20099;-56
2023/05/22 04:39:52;;;;;;;6.95;4.63;;;14.00;99.90;;;;;;5054491;28;20077;-56
2023/05/22 04:42:18;;;;;;;8.63;4.60;;;14.00;99.90;;;;;;5054871;28;20056;-56
2023/05/22 04:44:44;;;;;;;10.50;3.97;;;14.00;99.90;;;;;;5020748;28;20060;-56
2023/05/22 04:47:13;;;;;;;6.18;4.13;;;14.00;99.90;;;;;;5020254;28;20069;-56
2023/05/22 04:49:41;;;;;;;11.82;5.03;;;14.00;99.90;;;;;;5006299;28;20554;-56
2023/05/22 04:52:10;;;;;;;8.85;5.82;;;14.00;99.90;;;;;;5022134;28;20627;-56
2023/05/22 04:54:36;;;;;;;11.15;5.03;;;13.90;99.90;;;;;;5024715;28;20093;-56
2023/05/22 04:57:03;;;;;;;10.02;4.80;;;13.90;99.90;;;;;;5053131;28;20076;-56
2023/05/22 04:59:32;;;;;;;12.10;5.07;;;13.90;99.90;;;;;;5025958;28;20049;-56
2023/05/22 05:01:58;;;;;;;11.45;4.93;;;13.80;99.90;;;;;;5022659;28;20565;-56
2023/05/22 05:04:23;;;;;;;8.38;5.10;;;13.80;99.90;;;;;;5023114;28;20444;-56
2023/05/22 05:06:51;;;;;;;11.05;4.95;;;13.80;99.90;;;;;;5020325;28;20508;-56
2023/05/22 05:09:17;;;;;;;7.45;4.75;;;13.80;99.90;;;;;;5023638;28;20039;-57
2023/05/22 05:11:43;;;;;;;13.32;5.15;;;13.80;99.90;;;;;;5022534;28;20528;-58
2023/05/22 05:14:08;;;;;;;14.82;6.22;;;13.80;99.90;;;;;;5024103;28;21647;-57
2023/05/22 05:16:34;;;;;;;12.10;5.20;;;13.80;99.90;;;;;;5023133;28;20552;-57
2023/05/22 05:19:00;;;;;;;13.52;5.47;;;13.90;99.90;;;;;;5007494;28;20496;-57
2023/05/22 05:21:26;;;;;;;12.75;5.45;;;13.80;99.90;;;;;;5021814;28;20046;-57
2023/05/22 05:23:52;;;;;;;13.82;4.35;;;13.90;99.90;;;;;;5018989;28;20041;-57
2023/05/22 05:26:20;;;;;;;13.88;5.88;;;13.90;99.90;;;;;;5021083;28;20444;-57
2023/05/22 05:28:46;;;;;;;12.93;4.53;;;13.80;99.90;;;;;;5024371;28;20524;-57
2023/05/22 05:31:12;;;;;;;9.50;5.28;;;13.80;99.90;;;;;;5023383;28;20046;-57
2023/05/22 05:33:37;;;;;;;10.75;4.47;;;13.80;99.90;;;;;;5024527;28;20077;-57
2023/05/22 05:36:03;;;;;;;15.35;6.15;;;13.90;99.90;;;;;;5023099;28;20041;-57
2023/05/22 05:38:29;;;;;;;7.05;4.43;;;13.90;99.90;;;;;;5024583;28;20052;-56
2023/05/22 05:40:55;;;;;;;13.43;6.00;;;13.90;99.90;;;;;;5022891;28;20065;-59
2023/05/22 05:43:20;;;;;;;7.78;5.32;;;14.00;99.90;;;;;;5024624;28;20046;-56
2023/05/22 05:45:46;;;;;;;10.95;6.05;;;14.10;99.90;;;;;;5007105;28;20510;-58
2023/05/22 05:48:12;;;;;;;8.05;5.47;;;14.00;99.90;;;;;;5024977;28;20037;-57
2023/05/22 05:50:37;;;;;;;7.78;4.43;;;14.10;99.90;;;;;;5024204;28;20163;-57
2023/05/22 05:53:03;;;;;;;13.60;4.82;;;14.00;99.90;;;;;;5025126;28;20045;-57
2023/05/22 05:55:30;;;;;;;11.32;6.00;;;14.10;99.90;;;;;;5024736;28;20092;-56
2023/05/22 05:57:55;;;;;;;10.18;5.47;;;14.10;99.90;;;;;;5024797;28;20046;-56
2023/05/22 06:00:22;;;;;;;10.35;4.60;;;14.10;99.90;;;;;;5024722;28;20084;-57
2023/05/22 06:02:47;;;;;;;10.63;4.82;;;14.10;99.90;;;;;;5025197;28;20045;-57
2023/05/22 06:05:16;;;;;;;12.20;4.57;;;14.10;99.90;;;;;;5025084;28;20143;-57
2023/05/22 06:07:42;;;;;;;8.63;5.97;;;14.20;99.90;;;;;;5025443;28;20053;-57
2023/05/22 06:10:09;;;;;;;10.05;3.75;;;14.10;99.90;;;;;;5023602;28;20105;-57
2023/05/22 06:12:36;;;;;;;9.60;4.25;;;14.10;99.90;;;;;;5024150;28;20136;-57
2023/05/22 06:15:04;;;;;;;8.55;5.03;;;14.20;99.90;;;;;;5022633;28;20057;-57
2023/05/22 06:17:30;;;;;;;8.20;3.95;;;14.20;99.90;;;;;;5056370;28;20045;-57
2023/05/22 06:19:56;;;;;;;15.90;7.00;;;14.20;99.90;;;;;;5027459;28;20056;-57
2023/05/22 06:22:25;;;;;;;10.13;5.88;;;14.20;99.90;;;;;;5028547;28;20069;-57
2023/05/22 06:24:53;;;;;;;9.30;5.47;;;14.30;99.90;;;;;;5028758;28;20115;-57
2023/05/22 06:27:22;;;;;;;15.80;6.03;;;14.40;99.90;;;;;;5027532;28;20658;-57
2023/05/22 06:29:52;;;;;;;9.25;3.63;;;14.40;99.90;;;;;;5027369;28;20034;-57
2023/05/22 06:32:17;;;;;;;12.77;5.95;;;14.00;99.90;;;;;;5027726;28;20049;-57
2023/05/22 06:34:47;;;;;;;12.13;5.63;;;14.30;99.90;;;;;;5024117;28;20037;-57
2023/05/22 06:37:13;;;;;;;12.38;6.05;;;14.40;99.90;;;;;;5028222;28;20065;-57
2023/05/22 06:39:39;;;;;;;12.75;4.55;;;14.40;99.90;;;;;;5027679;28;20042;-58
2023/05/22 06:42:05;;;;;;;12.63;4.88;;;14.40;99.90;;;;;;5027183;28;20041;-57
2023/05/22 06:44:31;;;;;;;13.35;5.85;;;14.50;99.90;;;;;;5026286;28;20045;-57
2023/05/22 06:46:57;;;;;;;14.27;6.40;;;14.50;99.90;;;;;;5026558;28;20048;-57
2023/05/22 06:49:22;;;;;;;11.98;6.22;;;14.50;99.90;;;;;;5025595;28;20065;-57
2023/05/22 06:51:48;;;;;;;15.88;6.35;;;14.60;99.90;;;;;;5009732;28;20860;-57
2023/05/22 06:54:14;;;;;;;10.07;4.95;;;14.70;99.90;;;;;;5028103;28;20041;-57
2023/05/22 06:56:40;;;;;;;14.05;5.88;;;14.70;99.90;;;;;;5026891;28;20044;-57
2023/05/22 06:59:06;;;;;;;14.38;6.47;;;14.80;99.90;;;;;;5026299;28;20554;-57
2023/05/22 07:01:32;;;;;;;14.90;6.50;;;15.00;99.90;;;;;;5026445;28;20041;-57
2023/05/22 07:04:00;;;;;;;13.90;6.10;;;15.00;99.90;;;;;;5060062;28;20048;-57
2023/05/22 07:06:26;;;;;;;9.60;4.63;;;15.00;99.90;;;;;;5026623;28;20089;-57
2023/05/22 07:08:52;;;;;;;12.85;5.90;;;15.10;99.90;;;;;;5026356;28;20057;-58
2023/05/22 07:11:18;;;;;;;10.13;4.38;;;15.20;99.90;;;;;;5027570;28;20049;-57
2023/05/22 07:13:44;;;;;;;8.90;3.60;;;15.20;99.90;;;;;;5027914;28;20052;-57
2023/05/22 07:16:10;;;;;;;10.38;3.30;;;15.30;99.90;;;;;;5027178;28;20050;-57
2023/05/22 07:18:36;;;;;;;10.50;4.85;;;15.30;99.90;;;;;;5026162;28;20128;-57
2023/05/22 07:21:01;;;;;;;8.85;5.15;;;15.30;99.90;;;;;;5027772;28;20400;-57
2023/05/22 07:23:27;;;;;;;10.43;5.00;;;15.30;99.90;;;;;;5026303;28;20520;-57
2023/05/22 07:25:53;;;;;;;12.60;5.75;;;15.30;99.90;;;;;;5057751;28;20068;-57
2023/05/22 07:28:19;;;;;;;11.45;6.35;;;15.30;99.90;;;;;;5026110;28;20041;-57
2023/05/22 07:30:44;;;;;;;10.60;5.60;;;15.20;99.90;;;;;;5026432;28;20405;-57
2023/05/22 07:33:11;;;;;;;5.35;3.85;;;15.20;99.90;;;;;;5025748;28;20650;-56
2023/05/22 07:35:37;;;;;;;18.63;6.53;;;15.20;99.90;;;;;;5026221;28;20486;-57
2023/05/22 07:38:02;;;;;;;15.43;6.38;;;15.20;99.90;;;;;;5026134;28;20101;-57
2023/05/22 07:40:28;;;;;;;8.65;3.72;;;15.20;99.90;;;;;;5025439;28;20350;-57
2023/05/22 07:42:54;;;;;;;14.13;6.25;;;15.20;99.90;;;;;;5024068;28;20720;-56
2023/05/22 07:45:20;;;;;;;13.55;6.60;;;15.20;99.90;;;;;;5024549;28;20057;-57
2023/05/22 07:47:46;;;;;;;10.75;6.45;;;15.20;99.90;;;;;;5056319;28;20049;-57
2023/05/22 07:50:11;;;;;;;15.05;5.93;;;15.20;99.90;;;;;;5024212;28;20085;-57
2023/05/22 07:52:37;;;;;;;13.55;5.57;;;15.20;99.90;;;;;;5025440;28;20064;-58
2023/05/22 07:55:04;;;;;;;8.23;4.78;;;15.20;99.90;;;;;;5026012;28;20516;-56
2023/05/22 07:57:29;;;;;;;6.97;3.92;;;15.30;99.90;;;;;;5024744;28;20037;-57
2023/05/22 07:59:55;;;;;;;21.80;7.10;;;15.40;99.90;;;;;;5023985;28;20560;-57
2023/05/22 08:02:21;;;;;;;10.73;5.45;;;15.40;99.90;;;;;;5022410;28;20052;-57
2023/05/22 08:04:49;;;;;;;13.80;6.97;;;15.40;99.90;;;;;;5024354;28;20041;-57
2023/05/22 08:07:14;;;;;;;11.32;4.60;;;15.50;99.90;;;;;;5024747;28;20741;-57
2023/05/22 08:09:40;;;;;;;13.88;5.70;;;15.60;99.90;;;;;;5026310;28;20347;-57
2023/05/22 08:12:06;;;;;;;12.60;5.65;;;15.60;99.90;;;;;;5059151;28;20127;-56
2023/05/22 08:14:32;;;;;;;14.65;5.80;;;15.60;99.90;;;;;;5025763;28;20099;-57
2023/05/22 08:16:59;;;;;;;11.75;4.32;;;15.60;99.90;;;;;;5026569;28;20104;-58
2023/05/22 08:19:25;;;;;;;14.63;5.32;;;15.70;99.90;;;;;;5025812;28;20080;-57
2023/05/22 08:21:56;;;;;;;11.57;6.53;;;15.70;99.90;;;;;;5026794;28;20121;-57
2023/05/22 08:24:27;;;;;;;;;;;15.70;99.90;;;;;;5026537;28;20527;-57
2023/05/22 08:26:57;;;;;;;15.30;6.82;;;15.70;99.90;;;;;;5026563;28;20205;-57
2023/05/22 08:29:23;;;;;;;11.02;5.05;;;15.70;99.90;;;;;;5026528;28;20033;-57
2023/05/22 08:31:49;;;;;;;10.10;5.78;;;15.70;99.90;;;;;;5026407;28;20046;-57
2023/05/22 08:34:14;;;;;;;12.32;7.10;;;15.80;99.90;;;;;;5025330;28;20065;-57
2023/05/22 08:36:40;;;;;;;12.25;6.97;;;15.80;99.90;;;;;;5019317;28;20355;-57
2023/05/22 08:39:07;;;;;;;14.25;6.70;;;15.90;99.90;;;;;;5024580;28;20045;-57
2023/05/22 08:41:33;;;;;;;16.48;6.80;;;15.90;99.90;;;;;;5024463;28;20061;-57
2023/05/22 08:43:58;;;;;;;12.68;7.35;;;15.90;99.90;;;;;;5025096;28;20149;-57
2023/05/22 08:46:28;;;;;;;11.70;5.57;;;15.90;99.90;;;;;;5009393;28;20174;-57
2023/05/22 08:48:57;;;;;;;12.00;5.90;;;16.00;99.90;;;;;;5021472;28;20994;-57
2023/05/22 08:51:28;;;;;;;10.00;6.38;;;16.00;99.90;;;;;;5024683;28;20257;-56
2023/05/22 08:53:55;;;;;;;14.27;8.48;;;16.00;99.90;;;;;;5023699;28;20741;-57
2023/05/22 08:56:21;;;;;;;15.18;6.07;;;16.20;99.90;;;;;;5023852;28;20350;-57
2023/05/22 08:58:48;;;;;;;14.30;5.55;;;16.20;99.90;;;;;;5023713;28;20045;-57
2023/05/22 09:01:15;;;;;;;12.65;7.00;;;16.30;99.90;;;;;;5023092;28;20068;-57
2023/05/22 09:03:41;;;;;;;14.35;6.38;;;16.40;99.90;;;;;;5025966;28;20824;-57
2023/05/22 09:06:09;;;;;;;14.95;7.22;;;16.40;99.90;;;;;;5021762;28;20849;-56
2023/05/22 09:08:35;;;;;;;13.98;7.38;;;16.40;99.90;;;;;;5022993;28;20611;-58
2023/05/22 09:11:01;;;;;;;12.40;8.63;;;16.50;99.90;;;;;;5024116;28;20563;-59
2023/05/22 09:13:29;;;;;;;10.30;4.70;;;16.50;99.90;;;;;;5025015;28;20064;-57
2023/05/22 09:15:59;;;;;;;12.18;7.72;;;16.50;99.90;;;;;;5024438;28;20076;-57
2023/05/22 09:18:28;;;;;;;3.88;2.45;;;16.60;99.90;;;;;;5025355;28;20047;-57
2023/05/22 09:20:56;;;;;;;16.15;6.63;;;16.70;99.90;;;;;;5025632;28;20049;-57
2023/05/22 09:23:24;;;;;;;16.52;7.68;;;16.90;99.90;;;;;;5026047;28;20059;-57
2023/05/22 09:25:54;;;;;;;9.40;4.60;;;17.10;99.90;;;;;;5023529;28;20050;-57
2023/05/22 09:28:20;;;;;;;15.15;6.82;;;17.30;99.90;;;;;;5026062;28;20041;-56
2023/05/22 09:30:53;;;;;;;13.60;7.68;;;17.40;99.90;;;;;;5024081;28;20048;-57
2023/05/22 09:33:21;;;;;;;19.60;7.53;;;17.50;99.90;;;;;;5025028;28;20037;-57
2023/05/22 09:35:48;;;;;;;11.20;5.95;;;17.50;99.90;;;;;;5023982;28;20049;-57
2023/05/22 09:38:14;;;;;;;12.98;7.80;;;17.60;99.90;;;;;;5025339;28;20038;-57
2023/05/22 09:40:40;;;;;;;11.05;6.88;;;17.70;99.90;;;;;;5025221;28;20042;-57
2023/05/22 09:43:07;;;;;;;11.82;5.82;;;17.80;99.90;;;;;;5024710;28;20034;-56
2023/05/22 09:45:37;;;;;;;13.30;7.45;;;18.00;99.90;;;;;;5023296;28;20085;-58
2023/05/22 09:48:04;;;;;;;10.68;5.88;;;18.10;99.90;;;;;;5024505;28;20041;-57
2023/05/22 09:50:31;;;;;;;27.50;11.38;;;18.10;99.90;;;;;;5023991;28;20080;-57
2023/05/22 09:53:02;;;;;;;15.60;7.93;;;18.20;99.90;;;;;;5029701;28;20101;-57
2023/05/22 09:55:29;;;;;;;12.82;6.70;;;18.20;99.90;;;;;;5031093;28;20138;-57
2023/05/22 09:57:55;;;;;;;15.20;6.75;;;18.20;99.90;;;;;;5030738;28;20812;-57
2023/05/22 10:00:22;;;;;;;12.60;6.32;;;18.00;99.90;;;;;;5032088;28;20610;-57
2023/05/22 10:03:14;;;;;;;14.70;7.72;;;17.90;99.90;;;;;;5060839;28;20088;-57
2023/05/22 10:05:45;;;;;;;15.00;6.22;;;17.90;99.90;;;;;;5031219;28;20535;-57
2023/05/22 10:08:20;;;;;;;10.88;4.70;;;17.90;99.90;;;;;;5043286;28;20050;-57
2023/05/22 10:10:53;;;;;;;12.18;6.53;;;18.10;99.90;;;;;;5030174;28;20100;-57
2023/05/22 10:13:19;;;;;;;13.05;8.07;;;18.20;99.90;;;;;;5029676;28;20052;-57
2023/05/22 10:15:47;;;;;;;13.82;7.25;;;18.40;99.90;;;;;;5031659;28;20099;-57
2023/05/22 10:18:14;;;;;;;12.35;7.65;;;18.40;99.90;;;;;;5029893;28;20125;-57
2023/05/22 10:20:41;;;;;;;11.57;7.88;;;18.50;99.90;;;;;;5029466;28;20038;-58
2023/05/22 10:23:08;;;;;;;11.80;5.63;;;18.70;99.90;;;;;;5029425;28;20695;-58
2023/05/22 10:25:36;;;;;;;10.85;6.93;;;18.90;99.90;;;;;;5031846;28;20093;-57
2023/05/22 10:28:03;;;;;;;16.33;7.90;;;19.00;99.90;;;;;;5029924;28;20041;-57
2023/05/22 10:30:41;;;;;;;8.27;4.75;;;19.10;99.90;;;;;;5030198;28;20107;-57
2023/05/22 10:33:18;;;;;;;11.57;6.63;;;19.30;99.90;;;;;;5029448;28;20089;-57
2023/05/22 10:35:55;;;;;;;10.68;7.43;;;19.20;99.90;;;;;;5029564;28;20158;-56
2023/05/22 10:38:56;;;;;;;14.40;6.53;;;19.10;99.90;;;;;;5027339;28;20115;-57
2023/05/22 10:41:22;;;;;;;12.20;6.90;;;18.80;99.90;;;;;;5027382;28;20579;-57
2023/05/22 10:43:49;;;;;;;20.20;8.93;;;18.70;99.90;;;;;;5031673;28;20120;-57
2023/05/22 10:46:16;;;;;;;12.25;7.35;;;18.70;99.90;;;;;;5028678;28;20619;-57
2023/05/22 10:48:46;;;;;;;12.30;7.85;;;18.70;99.90;;;;;;5029707;28;20042;-57
2023/05/22 10:51:20;;;;;;;12.00;7.35;;;18.70;99.90;;;;;;5028111;28;20092;-57
2023/05/22 10:53:52;;;;;;;18.58;8.43;;;18.60;99.90;;;;;;5029353;28;20068;-57
2023/05/22 10:56:18;;;;;;;9.60;5.68;;;18.60;99.90;;;;;;5059979;28;20050;-58
2023/05/22 10:59:03;;;;;;;13.00;7.68;;;18.60;99.90;;;;;;5028341;28;20104;-57
2023/05/22 11:01:29;;;;;;;17.38;8.10;;;18.60;99.90;;;;;;5029032;28;20042;-57
2023/05/22 11:04:24;;;;;;;13.45;8.35;;;18.70;99.90;;;;;;5026119;28;20516;-57
2023/05/22 11:07:07;;;;;;;13.20;7.38;;;18.90;99.90;;;;;;5024266;28;20065;-57
2023/05/22 11:09:36;;;;;;;14.57;8.48;;;19.00;99.90;;;;;;5023672;28;20124;-57
2023/05/22 11:12:18;;;;;;;13.73;7.28;;;19.10;99.90;;;;;;5025928;28;20052;-58
2023/05/22 11:15:04;;;;;;;14.13;8.63;;;19.20;99.90;;;;;;5027379;28;20409;-58
2023/05/22 11:17:32;;;;;;;16.23;8.80;;;19.30;99.90;;;;;;5025807;28;20297;-58
2023/05/22 11:20:25;;;;;;;14.80;8.35;;;19.40;99.90;;;;;;5025768;28;20881;-61
2023/05/22 11:23:01;;;;;;;;;;;19.60;99.90;;;;;;5024954;28;20067;-57
2023/05/22 11:25:27;;;;;;;9.88;5.65;;;19.70;99.90;;;;;;5028557;28;19928;-57
2023/05/22 11:27:54;;;;;;;13.75;7.75;;;19.80;99.90;;;;;;5023128;28;20058;-57
2023/05/22 11:30:25;;;;;;;13.82;7.75;;;20.00;99.90;;;;;;5058978;28;20049;-57
2023/05/22 11:32:51;;;;;;;18.73;8.13;;;20.00;99.90;;;;;;5026112;28;20559;-57
2023/05/22 11:35:18;;;;;;;14.30;8.27;;;20.00;99.90;;;;;;5028527;28;20042;-57
2023/05/22 11:37:44;;;;;;;17.90;8.95;;;19.90;99.90;;;;;;5026456;28;20046;-58
2023/05/22 11:40:14;;;;;;;13.57;7.22;;;20.00;99.90;;;;;;5025683;28;20513;-57
2023/05/22 11:42:40;;;;;;;10.48;6.35;;;20.10;99.90;;;;;;5024326;28;20048;-58
2023/05/22 11:45:06;;;;;;;11.98;7.07;;;20.10;99.90;;;;;;5024715;28;20488;-58
2023/05/22 11:47:33;;;;;;;15.23;7.43;;;20.10;99.90;;;;;;5024940;28;20046;-58
2023/05/22 11:50:00;;;;;;;14.32;7.45;;;20.10;99.90;;;;;;5027020;28;20061;-57
2023/05/22 11:52:32;;;;;;;11.15;7.80;;;20.10;99.90;;;;;;5025362;28;20370;-58
2023/05/22 11:54:58;;;;;;;15.85;7.97;;;20.30;99.90;;;;;;5024846;28;20049;-58
2023/05/22 11:57:25;;;;;;;14.32;9.07;;;20.50;99.90;;;;;;5024640;28;20232;-58
2023/05/22 11:59:51;;;;;;;13.65;8.32;;;20.50;99.90;;;;;;5023354;28;20492;-58
2023/05/22 12:02:18;;;;;;;10.07;6.95;;;20.50;99.90;;;;;;5024098;28;20041;-58
2023/05/22 12:04:44;;;;;;;13.88;8.20;;;20.60;99.90;;;;;;5026447;28;20049;-58
2023/05/22 12:07:10;;;;;;;12.50;7.72;;;20.50;99.90;;;;;;5025579;28;20090;-58
2023/05/22 12:09:39;;;;;;;15.65;8.93;;;20.50;99.90;;;;;;5025804;28;20034;-58
2023/05/22 12:12:05;;;;;;;13.80;8.48;;;20.50;99.90;;;;;;5024966;28;20050;-57
2023/05/22 12:14:31;;;;;;;18.80;9.10;;;20.50;99.90;;;;;;5023790;28;20042;-58
2023/05/22 12:17:03;;;;;;;13.60;8.75;;;20.50;99.90;;;;;;5023240;28;20479;-58
2023/05/22 12:19:29;;;;;;;8.93;6.43;;;20.50;99.90;;;;;;5024373;28;20038;-58
2023/05/22 12:21:55;;;;;;;19.67;8.85;;;20.50;99.90;;;;;;5026245;28;20048;-58
2023/05/22 12:24:22;;;;;;;16.20;9.75;;;20.40;99.90;;;;;;5025276;28;20045;-58
2023/05/22 12:26:55;;;;;;;16.65;8.18;;;20.50;99.90;;;;;;5025486;28;20941;-60
2023/05/22 12:29:24;;;;;;;17.98;7.85;;;20.70;99.90;;;;;;5023811;28;20045;-57
2023/05/22 12:31:50;;;;;;;12.60;8.10;;;20.80;99.90;;;;;;5025624;28;20136;-57
2023/05/22 12:34:20;;;;;;;11.10;7.93;;;20.90;99.90;;;;;;5025354;28;20179;-58
2023/05/22 12:36:46;;;;;;;17.35;6.32;;;20.90;99.90;;;;;;5023936;28;20057;-58
2023/05/22 12:39:16;;;;;;;11.82;7.03;;;20.90;99.90;;;;;;5024336;28;20121;-58
2023/05/22 12:41:44;;;;;;;9.20;7.40;;;20.80;99.90;;;;;;5024430;28;20072;-58
2023/05/22 12:44:10;;;;;;;14.90;8.63;;;20.80;99.90;;;;;;5023812;28;20566;-58